createdAt,value
2022-12-19T00:00:32.131Z,-7.24
2022-12-19T00:01:38.731Z,-7.24
2022-12-19T00:02:45.237Z,-7.24
2022-12-19T00:03:56.609Z,-7.25
2022-12-19T00:05:00.556Z,-7.28
2022-12-19T00:06:05.374Z,-7.26
2022-12-19T00:07:09.296Z,-7.21
2022-12-19T00:08:18.026Z,-7.16
2022-12-19T00:09:22.224Z,-7.16
2022-12-19T00:10:26.190Z,-7.19
2022-12-19T00:11:30.864Z,-7.19
2022-12-19T00:12:36.855Z,-7.14
2022-12-19T00:13:42.123Z,-7.13
2022-12-19T00:14:49.681Z,-7.12
2022-12-19T00:16:01.102Z,-7.09
2022-12-19T00:17:36.989Z,-7.17
2022-12-19T00:18:12.357Z,-7.17
2022-12-19T00:19:17.866Z,-7.17
2022-12-19T00:20:21.867Z,-7.13
2022-12-19T00:21:29.858Z,-7.10
2022-12-19T00:22:33.843Z,-7.11
2022-12-19T00:23:41.154Z,-7.09
2022-12-19T00:24:45.099Z,-7.09
2022-12-19T00:25:49.219Z,-7.04
2022-12-19T00:26:55.997Z,-7.00
2022-12-19T00:28:03.488Z,-7.01
2022-12-19T00:29:13.853Z,-7.02
2022-12-19T00:30:17.594Z,-6.98
2022-12-19T00:31:26.327Z,-7.02
2022-12-19T00:32:35.102Z,-7.09
2022-12-19T00:33:37.507Z,-7.07
2022-12-19T00:34:46.092Z,-7.05
2022-12-19T00:35:51.633Z,-7.10
2022-12-19T00:36:55.673Z,-7.05
2022-12-19T00:37:59.583Z,-7.02
2022-12-19T00:39:08.785Z,-7.07
2022-12-19T00:40:13.319Z,-7.00
2022-12-19T00:41:20.215Z,-7.05
2022-12-19T00:42:28.043Z,-7.02
2022-12-19T00:43:33.730Z,-7.05
2022-12-19T00:44:37.662Z,-7.05
2022-12-19T00:45:41.702Z,-7.01
2022-12-19T00:46:52.781Z,-7.03
2022-12-19T00:47:53.920Z,-6.99
2022-12-19T00:48:58.807Z,-7.00
2022-12-19T00:50:03.339Z,-6.96
2022-12-19T00:51:10.567Z,-6.93
2022-12-19T00:52:17.101Z,-6.91
2022-12-19T00:53:20.215Z,-6.88
2022-12-19T00:54:24.708Z,-6.94
2022-12-19T00:55:28.788Z,-6.91
2022-12-19T00:56:37.232Z,-6.89
2022-12-19T00:57:40.146Z,-6.86
2022-12-19T00:58:47.394Z,-6.85
2022-12-19T00:59:50.295Z,-6.87
2022-12-19T01:00:56.806Z,-6.82
2022-12-19T01:02:00.903Z,-6.82
2022-12-19T01:03:07.592Z,-6.82
2022-12-19T01:04:28.139Z,-6.85
2022-12-19T01:05:23.179Z,-6.84
2022-12-19T01:06:27.924Z,-6.83
2022-12-19T01:08:47.096Z,-6.83
2022-12-19T01:09:51.043Z,-6.85
2022-12-19T01:14:23.201Z,-6.86
2022-12-19T01:15:28.808Z,-6.84
2022-12-19T01:16:32.947Z,-6.84
2022-12-19T01:17:44.004Z,-6.82
2022-12-19T01:18:44.397Z,-6.86
2022-12-19T01:19:49.937Z,-6.84
2022-12-19T01:20:57.454Z,-6.83
2022-12-19T01:22:01.452Z,-6.84
2022-12-19T01:23:08.007Z,-6.84
2022-12-19T01:24:12.150Z,-6.84
2022-12-19T01:25:17.778Z,-6.80
2022-12-19T01:26:26.871Z,-6.76
2022-12-19T01:27:35.431Z,-6.78
2022-12-19T01:28:38.211Z,-6.76
2022-12-19T01:29:52.847Z,-6.78
2022-12-19T01:30:50.269Z,-6.78
2022-12-19T01:31:54.829Z,-6.72
2022-12-19T01:32:59.923Z,-6.67
2022-12-19T01:34:03.916Z,-6.65
2022-12-19T01:35:19.787Z,-6.63
2022-12-19T01:36:15.495Z,-6.57
2022-12-19T01:38:08.861Z,-6.57
2022-12-19T01:38:26.243Z,-6.55
2022-12-19T01:39:30.943Z,-6.54
2022-12-19T01:40:38.034Z,-6.57
2022-12-19T01:41:41.990Z,-6.56
2022-12-19T01:42:48.560Z,-6.53
2022-12-19T01:44:06.990Z,-6.53
2022-12-19T01:45:15.633Z,-6.55
2022-12-19T01:46:25.531Z,-6.54
2022-12-19T01:47:28.758Z,-6.54
2022-12-19T01:48:42.488Z,-6.52
2022-12-19T01:49:51.917Z,-6.51
2022-12-19T01:51:09.342Z,-6.51
2022-12-19T01:52:22.913Z,-6.52
2022-12-19T01:53:22.596Z,-6.52
2022-12-19T01:54:40.572Z,-6.52
2022-12-19T01:55:43.536Z,-6.46
2022-12-19T01:56:53.263Z,-6.50
2022-12-19T01:58:00.708Z,-6.49
2022-12-19T01:59:07.796Z,-6.49
2022-12-19T02:00:12.801Z,-6.44
2022-12-19T02:01:19.208Z,-6.46
2022-12-19T02:02:28.935Z,-6.43
2022-12-19T02:03:36.434Z,-6.43
2022-12-19T02:04:43.257Z,-6.39
2022-12-19T02:06:00.918Z,-6.39
2022-12-19T02:24:11.524Z,-6.49
2022-12-19T02:25:37.414Z,-6.55
2022-12-19T02:27:20.557Z,-6.49
2022-12-19T02:28:19.718Z,-6.50
2022-12-19T02:47:32.530Z,-6.61
2022-12-19T02:48:41.148Z,-6.67
2022-12-19T03:55:10.070Z,-6.08
2022-12-19T03:59:19.507Z,-5.95
2022-12-19T04:00:26.931Z,-5.91
2022-12-19T04:01:33.901Z,-5.86
2022-12-19T04:02:42.507Z,-5.82
2022-12-19T04:03:48.910Z,-5.82
2022-12-19T04:05:00.400Z,-5.78
2022-12-19T04:06:07.847Z,-5.78
2022-12-19T04:07:14.917Z,-5.72
2022-12-19T04:08:19.618Z,-6.57
2022-12-19T04:09:24.669Z,-6.57
2022-12-19T04:10:32.171Z,-5.67
2022-12-19T04:11:39.249Z,-5.65
2022-12-19T04:12:51.472Z,-5.65
2022-12-19T04:14:00.270Z,-5.65
2022-12-19T04:15:07.756Z,-5.61
2022-12-19T04:16:17.743Z,-5.59
2022-12-19T04:17:45.397Z,-5.54
2022-12-19T04:18:59.345Z,-5.52
2022-12-19T04:20:15.376Z,-5.51
2022-12-19T04:21:22.337Z,-5.49
2022-12-19T04:22:39.859Z,-5.50
2022-12-19T04:24:55.002Z,-5.49
2022-12-19T04:25:19.181Z,-5.49
2022-12-19T04:26:26.756Z,-5.47
2022-12-19T04:27:33.551Z,-5.45
2022-12-19T04:28:47.893Z,-5.44
2022-12-19T04:29:58.342Z,-5.44
2022-12-19T04:31:06.274Z,-5.42
2022-12-19T04:32:11.533Z,-5.40
2022-12-19T04:33:16.840Z,-5.39
2022-12-19T04:34:22.057Z,-5.35
2022-12-19T04:35:26.331Z,-5.35
2022-12-19T04:36:30.526Z,-5.48
2022-12-19T04:37:37.444Z,-5.28
2022-12-19T04:38:48.533Z,-5.28
2022-12-19T04:39:57.752Z,-5.25
2022-12-19T04:40:59.783Z,-5.27
2022-12-19T04:42:05.159Z,-5.29
2022-12-19T04:43:09.472Z,-5.26
2022-12-19T04:44:15.036Z,-5.25
2022-12-19T04:45:19.076Z,-5.24
2022-12-19T04:46:24.408Z,-5.22
2022-12-19T04:47:28.504Z,-5.23
2022-12-19T04:48:36.352Z,-5.22
2022-12-19T04:49:40.330Z,-5.20
2022-12-19T04:50:45.731Z,-5.22
2022-12-19T04:51:53.450Z,-5.22
2022-12-19T04:52:57.958Z,-5.15
2022-12-19T04:54:01.880Z,-5.16
2022-12-19T04:55:06.357Z,-5.15
2022-12-19T04:56:15.394Z,-5.14
2022-12-19T04:57:19.434Z,-5.14
2022-12-19T04:58:23.466Z,-5.12
2022-12-19T04:59:27.707Z,-5.12
2022-12-19T05:00:34.445Z,-5.12
2022-12-19T05:01:44.946Z,-5.12
2022-12-19T05:02:46.922Z,-5.10
2022-12-19T05:03:57.614Z,-5.10
2022-12-19T05:06:30.995Z,-5.09
2022-12-19T05:07:36.485Z,-5.06
2022-12-19T05:08:42.451Z,-5.06
2022-12-19T05:09:46.511Z,-5.08
2022-12-19T05:10:53.202Z,-5.07
2022-12-19T05:11:57.107Z,-5.07
2022-12-19T05:13:02.674Z,-5.06
2022-12-19T05:14:06.666Z,-5.06
2022-12-19T05:15:11.025Z,-5.08
2022-12-19T05:16:16.462Z,-5.07
2022-12-19T05:18:08.469Z,-5.07
2022-12-19T05:18:57.393Z,-5.05
2022-12-19T05:20:51.463Z,-5.02
2022-12-19T05:21:59.282Z,-5.00
2022-12-19T05:23:05.767Z,-5.00
2022-12-19T05:56:12.649Z,-4.94
2022-12-19T05:58:03.840Z,-5.01
2022-12-19T05:59:07.903Z,-4.99
2022-12-19T06:00:12.905Z,-4.98
2022-12-19T06:00:18.766Z,-5.03
2022-12-19T06:01:26.500Z,-4.96
2022-12-19T06:02:37.025Z,-4.94
2022-12-19T06:03:45.487Z,-4.91
2022-12-19T06:04:51.096Z,-4.92
2022-12-19T06:05:59.094Z,-4.92
2022-12-19T06:07:04.875Z,-4.90
2022-12-19T06:08:23.678Z,-4.86
2022-12-19T06:09:46.137Z,-4.86
2022-12-19T07:28:28.429Z,-3.83
2022-12-19T07:38:35.584Z,-3.46
2022-12-19T07:56:35.053Z,-3.36
2022-12-19T07:57:45.988Z,-3.32
2022-12-19T08:15:54.668Z,-3.01
2022-12-19T08:22:25.914Z,-3.02
2022-12-19T08:22:43.258Z,-2.98
2022-12-19T08:23:49.272Z,-2.97
2022-12-19T08:24:51.187Z,-2.92
2022-12-19T08:26:04.991Z,-2.91
2022-12-19T08:27:14.043Z,-2.88
2022-12-19T08:28:31.277Z,-2.88
2022-12-19T09:16:40.643Z,-2.95
2022-12-19T09:17:47.248Z,-2.95
2022-12-19T09:18:59.310Z,-2.90
2022-12-19T09:20:04.101Z,-2.83
2022-12-19T09:21:12.770Z,-2.78
2022-12-19T09:22:17.496Z,-2.74
2022-12-19T09:23:22.452Z,-2.74
2022-12-19T09:24:28.073Z,-2.70
2022-12-19T09:25:35.888Z,-2.71
2022-12-19T09:26:49.260Z,-2.74
2022-12-19T09:30:36.792Z,-2.57
2022-12-19T09:31:40.935Z,-2.65
2022-12-19T09:32:45.036Z,-2.61
2022-12-19T09:33:50.472Z,-2.57
2022-12-19T09:34:57.999Z,-2.54
2022-12-19T09:36:09.735Z,-2.54
2022-12-19T09:37:15.875Z,-2.48
2022-12-19T09:38:20.794Z,-2.49
2022-12-19T09:39:27.511Z,-2.49
2022-12-19T09:41:28.103Z,-2.49
2022-12-19T09:42:19.895Z,-2.49
2022-12-19T09:43:41.530Z,-2.53
2022-12-19T09:44:53.949Z,-2.55
2022-12-19T09:46:17.680Z,-2.57
2022-12-19T10:03:42.416Z,-2.81
2022-12-19T10:07:11.196Z,-2.80
2022-12-19T10:07:59.643Z,-2.84
2022-12-19T10:09:00.718Z,-2.84
2022-12-19T10:12:21.581Z,-2.75
2022-12-19T10:12:42.397Z,-2.72
2022-12-19T10:12:45.128Z,-2.70
2022-12-19T10:13:40.160Z,-2.70
2022-12-19T10:15:01.335Z,-2.68
2022-12-19T10:16:31.236Z,-2.68
2022-12-19T10:18:21.205Z,-2.67
2022-12-19T10:20:35.302Z,-2.64
2022-12-19T10:20:48.191Z,-2.68
2022-12-19T10:22:16.836Z,-2.63
2022-12-19T10:22:58.249Z,-2.63
2022-12-19T10:24:10.981Z,-2.62
2022-12-19T10:25:25.326Z,-2.62
2022-12-19T10:26:48.694Z,-2.61
2022-12-19T10:28:10.529Z,-2.65
2022-12-19T10:29:41.027Z,-2.67
2022-12-19T10:30:37.512Z,-2.68
2022-12-19T10:32:07.891Z,-2.65
2022-12-19T10:33:20.616Z,-2.68
2022-12-19T10:34:23.863Z,-2.66
2022-12-19T10:35:35.121Z,-2.71
2022-12-19T10:37:13.307Z,-2.73
2022-12-19T10:38:02.081Z,-2.73
2022-12-19T10:39:09.161Z,-2.72
2022-12-19T10:40:28.459Z,-3.81
2022-12-19T10:42:02.515Z,-2.72
2022-12-19T10:43:32.134Z,-2.70
2022-12-19T10:47:08.892Z,-2.70
2022-12-19T11:02:54.883Z,-2.85
2022-12-19T11:04:18.072Z,-2.80
2022-12-19T11:05:29.512Z,-2.80
2022-12-19T11:12:25.642Z,-2.67
2022-12-19T11:24:45.038Z,-2.65
2022-12-19T11:29:26.554Z,-2.65
2022-12-19T11:29:27.068Z,-2.66
2022-12-19T11:29:29.926Z,-2.68
2022-12-19T11:29:30.352Z,-2.68
2022-12-19T11:30:05.033Z,-2.68
2022-12-19T11:30:38.167Z,-2.69
2022-12-19T11:30:40.967Z,-2.66
2022-12-19T11:30:43.747Z,-2.68
2022-12-19T11:30:48.369Z,-3.82
2022-12-19T11:32:39.673Z,-2.68
2022-12-19T11:33:31.490Z,-2.65
2022-12-19T11:34:37.333Z,-2.65
2022-12-19T11:35:54.673Z,-2.65
2022-12-19T11:37:04.376Z,-2.63
2022-12-19T11:38:13.976Z,-2.68
2022-12-19T11:39:45.681Z,-2.68
2022-12-19T11:56:33.459Z,-2.86
2022-12-19T11:57:35.864Z,-2.98
2022-12-19T11:58:42.644Z,-2.92
2022-12-19T11:59:47.260Z,-2.88
2022-12-19T12:00:57.046Z,-2.86
2022-12-19T12:02:22.877Z,-2.82
2022-12-19T12:04:01.869Z,-2.80
2022-12-19T12:05:24.795Z,-2.78
2022-12-19T12:06:35.951Z,-2.77
2022-12-19T12:09:01.955Z,-2.77
2022-12-19T12:09:50.123Z,-2.77
2022-12-19T12:15:41.348Z,-2.77
2022-12-19T12:18:15.254Z,-2.76
2022-12-19T12:19:27.933Z,-2.69
2022-12-19T12:22:30.197Z,-2.75
2022-12-19T12:24:58.835Z,-2.73
2022-12-19T12:25:02.747Z,-2.71
2022-12-19T12:31:10.203Z,-2.69
2022-12-19T12:31:14.804Z,-2.72
2022-12-19T12:31:18.960Z,-2.72
2022-12-19T13:20:22.347Z,-3.42
2022-12-19T13:21:36.380Z,-3.41
2022-12-19T13:22:47.093Z,-3.40
2022-12-19T13:23:58.287Z,-3.40
2022-12-19T13:25:16.376Z,-3.38
2022-12-19T13:26:32.092Z,-3.38
2022-12-19T13:27:44.407Z,-3.39
2022-12-19T13:34:13.835Z,-3.44
2022-12-19T13:39:50.679Z,-3.48
2022-12-19T13:39:55.162Z,-3.51
2022-12-19T13:40:07.493Z,-3.52
2022-12-19T15:14:51.502Z,-4.93
2022-12-19T15:15:52.787Z,-4.90
2022-12-19T15:17:42.949Z,-4.88
2022-12-19T15:18:46.958Z,-4.84
2022-12-19T15:19:52.166Z,-4.82
2022-12-19T15:21:03.473Z,-4.81
2022-12-19T15:22:08.941Z,-4.77
2022-12-19T15:23:23.303Z,-4.78
2022-12-19T15:24:34.517Z,-4.75
2022-12-19T15:57:58.346Z,-4.62
2022-12-19T15:59:07.156Z,-4.63
2022-12-19T16:00:27.984Z,-4.63
2022-12-19T16:01:30.602Z,-4.68
2022-12-19T16:03:20.425Z,-4.71
2022-12-19T16:03:44.014Z,-4.74
2022-12-19T16:04:50.646Z,-4.76
2022-12-19T16:05:59.298Z,-4.77
2022-12-19T16:07:06.548Z,-4.76
2022-12-19T16:08:17.688Z,-4.78
2022-12-19T16:26:46.931Z,-5.26
2022-12-19T16:42:09.660Z,-5.44
2022-12-19T16:45:47.678Z,-5.31
2022-12-19T16:46:52.392Z,-5.41
2022-12-19T16:47:56.474Z,-5.37
2022-12-19T16:49:02.848Z,-5.37
2022-12-19T16:50:17.170Z,-5.34
2022-12-19T16:52:34.928Z,-5.31
2022-12-19T17:13:17.243Z,-5.53
2022-12-19T17:52:27.724Z,-5.50
2022-12-19T17:53:44.551Z,-5.51
2022-12-19T17:54:02.763Z,-5.51
2022-12-19T17:55:16.656Z,-5.51
2022-12-19T17:56:23.276Z,-5.54
2022-12-19T17:57:27.231Z,-5.54
2022-12-19T17:58:31.192Z,-5.56
2022-12-19T17:59:35.163Z,-5.54
2022-12-19T18:20:37.804Z,-5.73
2022-12-19T18:21:41.216Z,-5.71
2022-12-19T18:22:49.634Z,-5.71
2022-12-19T18:23:53.621Z,-5.68
2022-12-19T18:25:01.346Z,-5.67
2022-12-19T18:26:13.881Z,-5.65
2022-12-19T18:27:23.042Z,-5.65
2022-12-19T18:28:45.062Z,-5.64
2022-12-19T18:30:38.710Z,-5.61
2022-12-19T18:31:26.859Z,-5.62
2022-12-19T18:32:25.637Z,-5.60
2022-12-19T18:35:50.722Z,-5.60
2022-12-19T18:50:55.737Z,-5.86
2022-12-19T18:52:02.865Z,-6.00
2022-12-19T18:53:12.138Z,-5.83
2022-12-19T18:54:21.655Z,-5.80
2022-12-19T18:55:47.265Z,-5.77
2022-12-19T18:56:52.809Z,-5.77
2022-12-19T19:02:21.339Z,-5.70
2022-12-19T19:02:43.862Z,-5.74
2022-12-19T19:03:11.046Z,-5.70
2022-12-19T19:39:01.766Z,-6.02
2022-12-19T19:40:11.436Z,-5.99
2022-12-19T19:41:15.287Z,-5.96
2022-12-19T20:06:35.422Z,-5.92
2022-12-19T21:29:38.864Z,-5.92
2022-12-19T21:30:43.296Z,-5.92
2022-12-19T21:31:53.865Z,-5.95
2022-12-19T21:33:00.954Z,-5.95
2022-12-19T21:34:10.286Z,-5.99
2022-12-19T21:37:20.544Z,-5.99
2022-12-19T21:39:02.083Z,-5.98
2022-12-19T21:40:31.246Z,-6.66
2022-12-19T21:41:01.000Z,-5.98
2022-12-19T21:41:42.318Z,-6.04
2022-12-19T21:42:44.318Z,-6.04
2022-12-19T21:45:24.422Z,-6.03
2022-12-19T21:46:28.075Z,-6.07
2022-12-19T21:47:33.684Z,-6.07
2022-12-19T21:48:40.040Z,-6.07
2022-12-19T21:49:45.654Z,-6.09
2022-12-19T21:50:52.685Z,-6.10
2022-12-19T21:51:57.658Z,-6.12
2022-12-19T21:53:04.314Z,-6.15
2022-12-19T21:55:35.788Z,-6.17
2022-12-19T21:56:45.749Z,-6.17
2022-12-19T21:57:53.771Z,-6.16
2022-12-19T21:59:00.743Z,-6.18
2022-12-19T22:00:15.165Z,-6.19
2022-12-19T22:01:18.130Z,-6.19
2022-12-19T22:02:24.266Z,-6.20
2022-12-19T22:03:29.242Z,-6.19
2022-12-19T22:04:35.221Z,-6.25
2022-12-19T22:05:41.268Z,-6.23
2022-12-19T22:06:48.404Z,-6.26
2022-12-19T22:08:02.906Z,-6.26
2022-12-19T23:28:11.385Z,-6.75
2022-12-19T23:29:16.417Z,-6.73
2022-12-19T23:30:21.696Z,-6.71
2022-12-19T23:31:28.001Z,-6.66
2022-12-19T23:32:32.734Z,-6.63
2022-12-19T23:33:38.981Z,-6.64
2022-12-19T23:34:43.095Z,-6.60
2022-12-19T23:35:47.125Z,-6.57
2022-12-19T23:38:01.508Z,-6.54
2022-12-19T23:39:08.670Z,-6.54
2022-12-19T23:40:14.841Z,-6.52
2022-12-19T23:44:10.787Z,-6.49
2022-12-19T23:45:18.291Z,-6.50
2022-12-19T23:46:25.490Z,-6.49
2022-12-19T23:47:29.511Z,-6.48
2022-12-19T23:48:33.543Z,-6.47
2022-12-19T23:49:37.607Z,-6.47
2022-12-19T23:50:50.651Z,-6.43
2022-12-19T23:51:56.900Z,-6.44
2022-12-19T23:53:00.890Z,-6.42
